Time;durP1;ratioP1;P1;durP2;ratioP2;P2;SDS_P1;SDS_P2;PMS_P1;PMS_P2;Temp;Humidity;BMP_temperature;BMP_pressure;BME280_temperature;BME280_humidity;BME280_pressure;Samples;Min_cycle;Max_cycle;Signal;HPM_P1;HPM_P2
2022/09/04 06:09:00;;;;;;;5.55;2.25;;;19.40;55.40;;;;;;6206317;23;20031;-73
2022/09/04 06:11:45;;;;;;;6.68;2.20;;;19.40;55.60;;;;;;6217675;23;20440;-72
2022/09/04 06:14:39;;;;;;;9.75;2.53;;;19.40;55.50;;;;;;6218035;23;20021;-73
2022/09/04 06:17:42;;;;;;;5.28;2.00;;;19.40;55.40;;;;;;6217693;23;20052;-72
2022/09/04 06:20:13;;;;;;;7.55;1.60;;;19.40;55.50;;;;;;6216853;23;20016;-74
2022/09/04 10:08:19;;;;;;;4.50;1.60;;;21.00;59.70;;;;;;6187617;23;20052;-81
2022/09/04 10:11:22;;;;;;;6.07;1.80;;;21.10;59.50;;;;;;6186686;23;20017;-77
2022/09/04 10:14:27;;;;;;;5.43;2.03;;;21.10;59.70;;;;;;6184309;23;20044;-76
2022/09/04 10:17:02;;;;;;;5.13;1.65;;;21.10;60.00;;;;;;6135421;23;20043;-77
2022/09/04 10:19:53;;;;;;;12.25;1.95;;;21.10;59.70;;;;;;6187160;23;20096;-77
2022/09/04 10:22:43;;;;;;;5.15;2.10;;;21.20;60.30;;;;;;6152975;23;20102;-78
2022/09/04 10:25:27;;;;;;;4.07;1.42;;;21.20;60.00;;;;;;6187652;23;20313;-79
2022/09/04 10:28:25;;;;;;;7.53;1.67;;;21.20;60.20;;;;;;6187102;23;20422;-78
2022/09/04 10:31:21;;;;;;;9.10;1.83;;;21.30;60.70;;;;;;6161161;23;20021;-74
2022/09/04 10:34:14;;;;;;;5.78;1.70;;;21.30;60.70;;;;;;6162226;23;20118;-77
2022/09/04 10:36:59;;;;;;;10.25;2.22;;;21.30;60.20;;;;;;6138266;23;20079;-79
2022/09/04 10:42:32;;;;;;;6.05;1.60;;;21.20;60.70;;;;;;6189373;23;20084;-74
2022/09/04 10:45:33;;;;;;;5.10;2.17;;;21.30;60.80;;;;;;6189752;23;20021;-75
2022/09/04 10:48:21;;;;;;;4.15;1.70;;;21.30;60.70;;;;;;6189320;23;20107;-73
2022/09/04 10:51:26;;;;;;;6.00;2.00;;;21.30;60.90;;;;;;6190115;23;20071;-77
2022/09/04 10:53:58;;;;;;;15.10;2.45;;;21.30;61.10;;;;;;6103316;23;20062;-78
2022/09/04 10:56:36;;;;;;;5.78;1.50;;;21.30;61.20;;;;;;6180613;23;20053;-77
2022/09/04 10:59:44;;;;;;;10.48;2.35;;;21.40;60.90;;;;;;6189350;23;20091;-74
2022/09/04 11:02:31;;;;;;;7.35;1.92;;;21.40;61.20;;;;;;6162925;23;20021;-76
2022/09/04 11:05:07;;;;;;;5.10;2.28;;;21.50;61.10;;;;;;6189890;23;20029;-73
2022/09/04 11:07:36;;;;;;;6.68;2.55;;;21.50;61.50;;;;;;6189600;23;20020;-74
2022/09/04 11:10:11;;;;;;;7.28;2.45;;;21.50;62.20;;;;;;6219228;23;20060;-75
2022/09/04 11:12:45;;;;;;;3.92;2.17;;;21.50;62.80;;;;;;6219259;23;20016;-77
2022/09/04 11:15:40;;;;;;;4.75;2.33;;;21.60;62.20;;;;;;6220279;23;20294;-74
2022/09/04 11:18:11;;;;;;;;;;;21.60;62.00;;;;;;6219504;23;20027;-74
2022/09/04 11:20:53;;;;;;;4.78;1.60;;;21.60;61.60;;;;;;6219244;23;19919;-74
2022/09/04 11:23:58;;;;;;;4.72;1.85;;;21.60;61.50;;;;;;6218837;23;20013;-74
2022/09/04 11:26:30;;;;;;;5.30;2.03;;;21.70;61.10;;;;;;6191660;23;20028;-74
2022/09/04 11:29:11;;;;;;;3.53;1.70;;;21.70;60.90;;;;;;6218292;23;20083;-74
2022/09/04 11:32:10;;;;;;;4.00;1.67;;;21.70;60.80;;;;;;6219047;23;20065;-74
2022/09/04 11:35:00;;;;;;;4.85;1.75;;;21.80;60.90;;;;;;6219166;23;20017;-75
2022/09/04 11:37:47;;;;;;;1.90;1.65;;;21.80;60.70;;;;;;6219051;23;20062;-74
2022/09/04 11:40:31;;;;;;;4.25;2.00;;;21.90;60.60;;;;;;6219724;23;20036;-74
2022/09/04 11:43:23;;;;;;;4.70;1.65;;;21.90;60.50;;;;;;6219286;23;20099;-74
2022/09/04 11:46:07;;;;;;;2.22;1.63;;;21.90;60.20;;;;;;6218459;23;20027;-74
2022/09/04 11:48:58;;;;;;;3.28;1.65;;;21.90;60.10;;;;;;6219696;23;20028;-75
2022/09/04 11:51:49;;;;;;;4.55;1.75;;;21.90;60.20;;;;;;6217769;23;20024;-75
2022/09/04 11:55:05;;;;;;;5.20;1.58;;;21.90;60.40;;;;;;6219099;23;20039;-75
2022/09/04 11:58:01;;;;;;;5.65;1.63;;;21.90;60.20;;;;;;6167619;23;20091;-75
2022/09/04 12:00:42;;;;;;;3.53;1.77;;;21.90;60.40;;;;;;6218873;23;20020;-74
2022/09/04 12:03:26;;;;;;;3.88;1.30;;;21.90;60.30;;;;;;6218212;23;20020;-75
2022/09/04 12:06:12;;;;;;;12.00;1.73;;;21.90;60.70;;;;;;6218798;23;20448;-73
2022/09/04 12:09:32;;;;;;;9.98;1.95;;;21.90;60.90;;;;;;6218640;23;20012;-73
2022/09/04 12:12:10;;;;;;;11.35;2.33;;;21.90;61.00;;;;;;6097684;23;20017;-74
2022/09/04 12:14:50;;;;;;;8.20;1.98;;;22.00;60.80;;;;;;6202982;23;20020;-74
2022/09/04 12:17:46;;;;;;;7.47;1.85;;;22.00;60.80;;;;;;6218652;23;20495;-73
2022/09/04 12:20:27;;;;;;;5.00;1.70;;;22.00;60.50;;;;;;6210805;23;20066;-74
2022/09/04 12:23:21;;;;;;;4.05;1.88;;;22.00;60.20;;;;;;6218135;23;20052;-77
2022/09/04 12:26:35;;;;;;;7.15;1.45;;;22.00;59.90;;;;;;6218576;23;20017;-76
2022/09/04 12:29:21;;;;;;;4.32;1.58;;;22.00;60.70;;;;;;6127667;23;20439;-76
2022/09/04 12:32:03;;;;;;;6.70;2.25;;;22.00;60.80;;;;;;6218340;23;20016;-76
2022/09/04 12:34:35;;;;;;;5.78;1.60;;;22.00;60.90;;;;;;6218716;23;20154;-77
2022/09/04 12:37:27;;;;;;;5.20;1.55;;;22.00;60.70;;;;;;6218443;23;20022;-76
2022/09/04 12:40:11;;;;;;;3.60;1.63;;;22.00;60.50;;;;;;6218378;23;20020;-74
2022/09/04 12:43:19;;;;;;;6.97;1.83;;;22.00;60.30;;;;;;6217463;23;20044;-76
2022/09/04 12:45:45;;;;;;;5.22;1.70;;;22.00;60.60;;;;;;6217955;23;20013;-75
2022/09/04 12:48:24;;;;;;;7.85;1.85;;;22.00;61.00;;;;;;6216460;23;20024;-75
2022/09/04 12:50:58;;;;;;;4.60;1.77;;;22.00;60.90;;;;;;6217128;23;20406;-76
2022/09/04 12:53:25;;;;;;;2.85;1.38;;;22.00;60.70;;;;;;6217321;23;20013;-75
2022/09/04 12:56:04;;;;;;;5.07;1.50;;;22.00;60.70;;;;;;6217848;23;20028;-78
2022/09/04 12:59:06;;;;;;;6.32;1.73;;;22.00;60.80;;;;;;6218144;23;20057;-77
2022/09/04 13:02:11;;;;;;;1.88;1.30;;;22.10;60.30;;;;;;6218538;23;20372;-76
2022/09/04 13:04:56;;;;;;;2.28;1.20;;;22.00;60.40;;;;;;6218048;23;20091;-77
2022/09/04 13:07:39;;;;;;;1.98;1.30;;;22.10;60.60;;;;;;6216542;23;20055;-78
2022/09/04 13:10:08;;;;;;;3.47;1.73;;;22.00;60.50;;;;;;6217809;23;20417;-77
2022/09/04 13:12:35;;;;;;;2.75;1.50;;;22.10;60.60;;;;;;6218289;23;20283;-76
2022/09/04 13:15:20;;;;;;;1.83;1.73;;;22.10;60.50;;;;;;6217570;23;20418;-76
2022/09/04 13:18:11;;;;;;;2.92;1.30;;;22.10;60.40;;;;;;6217777;23;20020;-78
2022/09/04 13:21:11;;;;;;;1.45;1.35;;;22.10;60.40;;;;;;6218041;23;20052;-78
2022/09/04 13:23:56;;;;;;;2.05;1.10;;;22.10;60.50;;;;;;6184322;23;20031;-78
2022/09/04 13:26:42;;;;;;;1.65;1.17;;;22.10;60.50;;;;;;6217827;23;20096;-75
2022/09/04 13:29:14;;;;;;;3.08;1.30;;;22.10;60.50;;;;;;6217929;23;20024;-77
2022/09/04 13:32:09;;;;;;;3.05;1.33;;;22.10;60.80;;;;;;6217462;23;20025;-77
2022/09/04 13:35:13;;;;;;;1.98;1.13;;;22.10;60.40;;;;;;6211305;23;20095;-76
2022/09/04 13:37:51;;;;;;;3.20;1.40;;;22.10;60.40;;;;;;6217862;23;20024;-75
2022/09/04 13:40:58;;;;;;;2.97;1.50;;;22.10;60.60;;;;;;6219204;23;20021;-74
2022/09/04 13:43:52;;;;;;;4.50;1.58;;;22.10;61.00;;;;;;6217240;23;20310;-75
2022/09/04 13:46:28;;;;;;;2.25;1.35;;;22.20;61.00;;;;;;6217550;23;20031;-73
2022/09/04 13:49:04;;;;;;;3.35;1.30;;;22.20;61.00;;;;;;6216211;23;20122;-74
2022/09/04 13:51:58;;;;;;;4.32;1.63;;;22.20;61.20;;;;;;6216288;23;20024;-74
2022/09/04 13:54:24;;;;;;;;;;;22.10;61.30;;;;;;6218367;23;20042;-74
2022/09/04 13:57:17;;;;;;;2.05;1.30;;;22.10;61.00;;;;;;6216852;23;19923;-75
2022/09/04 13:59:48;;;;;;;3.72;1.70;;;22.10;61.30;;;;;;6202629;23;20445;-74
2022/09/04 14:02:23;;;;;;;4.57;1.75;;;22.10;62.40;;;;;;6217666;23;20021;-74
2022/09/04 14:05:06;;;;;;;6.22;1.83;;;22.10;62.00;;;;;;6217791;23;20093;-75
2022/09/04 14:07:42;;;;;;;5.30;1.58;;;22.10;62.10;;;;;;6218332;23;20444;-74
2022/09/04 14:10:13;;;;;;;2.55;1.40;;;22.10;62.30;;;;;;6221119;23;20016;-74
2022/09/04 14:13:10;;;;;;;2.67;1.30;;;22.10;62.30;;;;;;6221142;23;20028;-75
2022/09/04 14:15:50;;;;;;;3.70;1.45;;;22.10;62.30;;;;;;6221068;23;20020;-75
2022/09/04 14:18:27;;;;;;;4.20;1.27;;;22.10;62.90;;;;;;6221506;23;20027;-76
2022/09/04 14:21:04;;;;;;;3.60;1.58;;;22.10;62.80;;;;;;6220448;23;20088;-75
2022/09/04 14:24:02;;;;;;;2.92;1.40;;;22.20;62.40;;;;;;6220156;23;20087;-75
2022/09/04 14:26:55;;;;;;;2.60;1.17;;;22.10;62.00;;;;;;6220781;23;20096;-73
2022/09/04 14:29:54;;;;;;;5.03;1.70;;;22.20;62.30;;;;;;6221383;23;20397;-74
2022/09/04 14:32:43;;;;;;;3.00;1.15;;;22.20;62.10;;;;;;6219776;23;20017;-76
2022/09/04 14:35:34;;;;;;;3.50;1.13;;;22.20;62.60;;;;;;6219812;23;20038;-76
2022/09/04 14:38:13;;;;;;;3.88;1.50;;;22.20;62.70;;;;;;6220371;23;20016;-71
2022/09/04 14:40:55;;;;;;;2.80;1.42;;;22.20;62.50;;;;;;6219994;23;20433;-74
2022/09/04 14:43:30;;;;;;;2.78;1.15;;;22.20;62.40;;;;;;6220958;23;20009;-72
2022/09/04 14:46:14;;;;;;;5.53;1.38;;;22.20;62.40;;;;;;6219063;23;20020;-72
2022/09/04 14:48:43;;;;;;;;;;;22.20;62.80;;;;;;6220362;23;20017;-74
2022/09/04 14:51:24;;;;;;;1.88;1.55;;;22.20;62.60;;;;;;6220569;23;19984;-74
2022/09/04 14:53:54;;;;;;;5.50;1.70;;;22.20;62.70;;;;;;6219887;23;20017;-72
2022/09/04 14:56:45;;;;;;;4.18;1.35;;;22.20;62.70;;;;;;6220587;23;20013;-72
2022/09/04 14:59:25;;;;;;;4.43;1.70;;;22.20;62.60;;;;;;6220451;23;20353;-73
2022/09/04 15:02:10;;;;;;;3.38;1.40;;;22.20;62.20;;;;;;6221225;23;20017;-73
2022/09/04 15:04:40;;;;;;;4.13;2.00;;;22.20;62.10;;;;;;6220585;23;20490;-75
2022/09/04 15:07:42;;;;;;;5.43;1.70;;;22.30;62.50;;;;;;6220701;23;20021;-75
2022/09/04 15:10:14;;;;;;;4.35;1.45;;;22.30;62.50;;;;;;6220816;23;20032;-75
2022/09/04 15:12:48;;;;;;;3.13;1.45;;;22.30;62.40;;;;;;6220672;23;20107;-74
2022/09/04 15:15:38;;;;;;;3.75;1.63;;;22.30;62.20;;;;;;6220808;23;20016;-76
2022/09/04 15:18:40;;;;;;;4.55;1.77;;;22.30;62.10;;;;;;6220349;23;20401;-76
2022/09/04 15:21:26;;;;;;;3.25;1.70;;;22.30;61.80;;;;;;6219114;23;20023;-74
2022/09/04 15:23:58;;;;;;;5.68;1.90;;;22.30;61.70;;;;;;6219154;23;20105;-75
2022/09/04 15:26:40;;;;;;;4.93;1.55;;;22.30;61.80;;;;;;6218401;23;20027;-73
2022/09/04 15:29:30;;;;;;;3.38;1.50;;;22.30;61.90;;;;;;6219004;23;20151;-73
2022/09/04 15:32:07;;;;;;;2.78;1.20;;;22.30;61.90;;;;;;6161836;23;20483;-75
2022/09/04 15:34:33;;;;;;;4.07;1.40;;;22.30;62.00;;;;;;6217498;23;20021;-75
2022/09/04 15:37:23;;;;;;;3.15;1.10;;;22.30;62.10;;;;;;6218963;23;20142;-74
2022/09/04 15:40:13;;;;;;;2.67;1.70;;;22.30;61.90;;;;;;6217518;23;20025;-75
2022/09/04 15:42:55;;;;;;;1.75;1.48;;;22.30;62.10;;;;;;6219178;23;20024;-74
2022/09/04 15:45:39;;;;;;;2.60;1.30;;;22.30;62.10;;;;;;6219458;23;20379;-76
2022/09/04 15:48:20;;;;;;;2.72;1.38;;;22.30;62.20;;;;;;6219376;23;20020;-74
2022/09/04 15:51:08;;;;;;;1.38;1.13;;;22.30;62.20;;;;;;6219208;23;20108;-74
2022/09/04 15:53:36;;;;;;;1.65;1.25;;;22.30;62.20;;;;;;6198365;23;20024;-74
2022/09/04 15:56:08;;;;;;;2.63;1.15;;;22.30;62.40;;;;;;6219132;23;20147;-75
2022/09/04 15:59:00;;;;;;;2.08;1.20;;;22.30;62.40;;;;;;6219081;23;20017;-74
2022/09/04 16:01:30;;;;;;;1.77;1.30;;;22.30;62.40;;;;;;6218939;23;20031;-76
2022/09/04 16:04:01;;;;;;;1.42;1.33;;;22.30;62.50;;;;;;6218808;23;20339;-74
2022/09/04 16:06:47;;;;;;;3.10;1.48;;;22.30;62.50;;;;;;6218139;23;20020;-74
2022/09/04 16:09:27;;;;;;;2.22;1.50;;;22.20;62.50;;;;;;6217711;23;20087;-76
2022/09/04 16:12:06;;;;;;;1.70;1.27;;;22.30;62.60;;;;;;6216148;23;20020;-75
2022/09/04 16:14:58;;;;;;;2.38;1.40;;;22.30;62.70;;;;;;6217157;23;20021;-74
2022/09/04 16:17:28;;;;;;;2.22;1.42;;;22.20;62.60;;;;;;6216753;23;20421;-75
2022/09/04 16:20:17;;;;;;;2.50;1.30;;;22.30;62.80;;;;;;6217473;23;20017;-74
2022/09/04 16:22:48;;;;;;;1.30;1.08;;;22.20;62.80;;;;;;6218065;23;20016;-74
2022/09/04 16:25:23;;;;;;;1.83;1.20;;;22.20;63.50;;;;;;6216869;23;20016;-75
2022/09/04 16:28:06;;;;;;;1.90;1.15;;;22.20;62.90;;;;;;6216762;23;20413;-75
2022/09/04 16:30:40;;;;;;;2.80;1.50;;;22.20;62.90;;;;;;6216831;23;20063;-75
2022/09/04 16:33:17;;;;;;;3.00;1.20;;;22.20;63.10;;;;;;6217217;23;20020;-76
2022/09/04 16:35:43;;;;;;;2.88;1.17;;;22.20;63.20;;;;;;6216640;23;20051;-78
2022/09/04 16:38:17;;;;;;;3.45;1.67;;;22.20;63.20;;;;;;6216182;23;20020;-77
2022/09/04 16:40:55;;;;;;;3.30;1.50;;;22.30;63.40;;;;;;6217350;23;20150;-73
2022/09/04 16:43:32;;;;;;;3.90;1.50;;;22.30;63.50;;;;;;6217068;23;20016;-77
2022/09/04 16:46:13;;;;;;;2.85;2.00;;;22.30;63.90;;;;;;6216978;23;20103;-75
2022/09/04 16:49:07;;;;;;;4.15;1.48;;;22.30;63.90;;;;;;6216978;23;20079;-77
2022/09/04 16:52:21;;;;;;;4.40;1.95;;;22.30;63.80;;;;;;6217097;23;20508;-76
2022/09/04 16:55:01;;;;;;;3.85;1.67;;;22.40;64.70;;;;;;6206045;23;20091;-75
2022/09/04 16:58:01;;;;;;;3.47;1.77;;;22.40;64.20;;;;;;6216925;23;20017;-71
2022/09/04 17:00:29;;;;;;;3.45;1.40;;;22.40;64.30;;;;;;6216965;23;20016;-77
2022/09/04 17:03:00;;;;;;;5.10;1.83;;;22.40;64.30;;;;;;6215656;23;20279;-76
2022/09/04 17:05:38;;;;;;;3.28;1.92;;;22.40;64.50;;;;;;6167048;23;1123129;-75
2022/09/04 17:08:07;;;;;;;7.05;2.00;;;22.50;64.60;;;;;;6218664;23;20099;-78
2022/09/04 17:10:51;;;;;;;4.78;1.80;;;22.40;64.50;;;;;;6218478;23;20017;-74
2022/09/04 17:13:26;;;;;;;2.00;1.52;;;22.40;64.20;;;;;;6218216;23;20021;-74
2022/09/04 17:16:14;;;;;;;3.90;1.55;;;22.40;64.00;;;;;;6217511;23;20369;-76
2022/09/04 17:18:47;;;;;;;2.35;1.65;;;22.40;64.20;;;;;;6218087;23;20079;-76
2022/09/04 17:24:41;;;;;;;5.90;2.33;;;22.40;64.60;;;;;;6218025;23;20028;-75
2022/09/04 18:24:47;;;;;;;3.25;2.13;;;22.10;62.40;;;;;;6193902;22;19955;-75
2022/09/04 18:27:43;;;;;;;4.07;2.15;;;22.10;62.40;;;;;;6188600;23;20471;-76
2022/09/04 18:30:14;;;;;;;4.75;2.13;;;22.10;62.40;;;;;;6217608;23;20016;-76
2022/09/04 18:32:51;;;;;;;3.22;1.70;;;22.10;62.30;;;;;;6191857;23;20313;-76
2022/09/04 18:35:45;;;;;;;3.33;1.60;;;22.10;62.20;;;;;;6217178;23;20025;-75
2022/09/04 18:38:25;;;;;;;3.78;1.83;;;22.10;61.90;;;;;;6217021;23;20016;-75
2022/09/04 18:40:59;;;;;;;4.75;2.13;;;22.10;61.80;;;;;;6191588;23;20020;-74
2022/09/04 18:43:42;;;;;;;4.82;1.83;;;22.10;61.80;;;;;;6217499;23;20024;-75
2022/09/04 18:46:10;;;;;;;6.38;2.15;;;22.10;61.70;;;;;;6217521;23;20024;-75
2022/09/04 18:48:37;;;;;;;4.85;2.22;;;22.10;61.70;;;;;;6216682;23;20055;-76
2022/09/04 19:09:19;;;;;;;3.53;1.88;;;22.00;60.40;;;;;;6212337;23;19927;-75
2022/09/04 19:11:53;;;;;;;7.03;2.13;;;22.00;60.60;;;;;;6219311;23;20101;-76
2022/09/04 19:14:29;;;;;;;8.38;1.88;;;22.00;60.70;;;;;;6192632;23;20031;-73
2022/09/04 19:17:02;;;;;;;4.82;1.92;;;21.90;60.80;;;;;;6219221;23;20016;-73
2022/09/04 19:19:37;;;;;;;4.93;1.87;;;21.90;61.00;;;;;;6220060;23;20012;-73
2022/09/04 19:22:15;;;;;;;4.13;1.92;;;21.90;61.10;;;;;;6218688;23;20710;-77
2022/09/04 19:25:03;;;;;;;6.18;2.42;;;21.90;61.10;;;;;;6192993;23;20017;-77
2022/09/04 19:28:05;;;;;;;3.55;1.85;;;21.90;61.30;;;;;;6218995;23;20068;-83
2022/09/04 19:31:10;;;;;;;4.07;1.80;;;21.90;61.20;;;;;;6193447;23;20016;-84
2022/09/04 19:33:46;;;;;;;9.77;1.83;;;21.80;61.30;;;;;;6098001;23;20419;-76
2022/09/04 19:36:19;;;;;;;5.15;1.92;;;21.80;61.40;;;;;;6205774;23;20023;-78
2022/09/04 19:39:19;;;;;;;3.78;1.80;;;21.80;61.60;;;;;;6218623;23;20106;-75
2022/09/04 19:41:53;;;;;;;5.28;2.20;;;21.80;61.40;;;;;;6218471;23;20437;-76
2022/09/04 19:44:26;;;;;;;4.50;2.40;;;21.80;61.50;;;;;;6218794;23;20082;-74
2022/09/04 19:47:24;;;;;;;3.15;1.77;;;21.80;61.40;;;;;;6219483;23;20027;-75
2022/09/04 19:49:53;;;;;;;3.83;1.90;;;21.80;61.40;;;;;;6192603;23;20102;-81
2022/09/04 19:52:49;;;;;;;3.92;1.65;;;21.80;61.60;;;;;;6192462;23;20040;-74
2022/09/04 19:55:18;;;;;;;4.57;2.22;;;21.80;61.60;;;;;;6192338;23;20031;-77
2022/09/04 19:58:06;;;;;;;5.32;2.15;;;21.80;61.60;;;;;;6218746;23;20012;-79
2022/09/04 20:00:35;;;;;;;2.88;1.73;;;21.70;61.50;;;;;;6171521;23;20031;-80
2022/09/04 20:03:07;;;;;;;2.92;1.83;;;21.70;61.50;;;;;;6192319;23;20023;-80
2022/09/04 20:05:36;;;;;;;2.25;1.95;;;21.80;61.60;;;;;;6192543;23;20413;-81
2022/09/04 20:08:04;;;;;;;2.45;1.75;;;21.70;61.60;;;;;;6218797;23;20044;-80
2022/09/04 20:10:40;;;;;;;2.78;1.88;;;21.70;61.50;;;;;;6171388;23;20048;-79
2022/09/04 20:13:27;;;;;;;4.28;1.85;;;21.70;61.60;;;;;;6248748;23;20018;-82
2022/09/04 20:16:11;;;;;;;5.95;1.85;;;21.70;61.60;;;;;;6223270;23;20016;-78
2022/09/04 20:18:40;;;;;;;2.65;2.10;;;21.70;61.50;;;;;;6249072;23;20016;-74
2022/09/04 20:21:13;;;;;;;4.65;2.05;;;21.70;61.60;;;;;;6248831;23;20026;-74
2022/09/04 20:23:53;;;;;;;3.97;1.77;;;21.70;61.50;;;;;;6249063;23;20005;-77
2022/09/04 20:26:19;;;;;;;3.60;2.22;;;21.70;61.70;;;;;;6222804;23;20020;-77
2022/09/04 20:29:14;;;;;;;3.72;1.70;;;21.70;61.60;;;;;;6248936;23;20031;-77
2022/09/04 20:31:43;;;;;;;4.75;1.70;;;21.80;61.30;;;;;;6248864;23;20083;-76
2022/09/04 20:34:34;;;;;;;2.85;1.80;;;21.70;61.40;;;;;;6248467;23;20027;-76
2022/09/04 20:37:35;;;;;;;3.85;1.73;;;21.80;61.40;;;;;;6248701;23;20016;-76
2022/09/04 20:40:10;;;;;;;4.93;2.10;;;21.80;61.50;;;;;;6240057;23;20035;-77
2022/09/04 20:42:46;;;;;;;4.18;2.03;;;21.80;61.50;;;;;;6248400;23;20035;-77
2022/09/04 20:45:38;;;;;;;3.78;1.83;;;21.70;61.80;;;;;;6223000;23;20020;-77
2022/09/04 20:48:13;;;;;;;2.67;1.40;;;21.70;61.50;;;;;;6249572;23;20054;-77
2022/09/04 20:50:49;;;;;;;3.38;1.95;;;21.70;61.70;;;;;;6249712;23;20054;-77
2022/09/04 20:53:46;;;;;;;2.97;1.80;;;21.70;61.50;;;;;;6248545;23;20020;-79
2022/09/04 20:56:47;;;;;;;3.45;2.00;;;21.70;61.50;;;;;;6221810;23;20024;-77
2022/09/04 20:59:36;;;;;;;3.78;1.80;;;21.70;61.60;;;;;;6221868;23;20035;-79
2022/09/04 21:02:17;;;;;;;2.20;1.70;;;21.70;61.30;;;;;;6248836;23;20396;-73
2022/09/04 21:04:55;;;;;;;2.47;1.90;;;21.70;61.30;;;;;;6248668;23;20057;-71
2022/09/04 21:07:45;;;;;;;1.92;1.60;;;21.70;61.00;;;;;;6248614;23;20019;-73
2022/09/04 21:10:36;;;;;;;3.85;1.70;;;21.70;60.90;;;;;;6248691;23;20016;-74
2022/09/04 21:13:20;;;;;;;4.18;1.90;;;21.70;61.20;;;;;;6222420;23;20052;-73
